Time;durP1;ratioP1;P1;durP2;ratioP2;P2;SDS_P1;SDS_P2;PMS_P1;PMS_P2;Temp;Humidity;BMP_temperature;BMP_pressure;BME280_temperature;BME280_humidity;BME280_pressure;Samples;Min_cycle;Max_cycle;Signal;HPM_P1;HPM_P2
2021/12/12 00:00:10;;;;;;;0.10;0.00;;;-1.10;86.90;;;;;;20800176;28;20034;-54
2021/12/12 00:10:21;;;;;;;0.40;0.00;;;-1.30;86.30;;;;;;20809593;28;20041;-52
2021/12/12 00:20:27;;;;;;;0.05;0.00;;;-1.30;86.80;;;;;;20816507;28;20068;-52
2021/12/12 00:30:30;;;;;;;2.03;0.08;;;-1.20;86.20;;;;;;20815954;28;20107;-58
2021/12/12 00:40:36;;;;;;;0.43;0.00;;;-1.00;86.00;;;;;;20798733;28;20099;-56
2021/12/12 00:50:43;;;;;;;0.05;0.00;;;-1.00;85.90;;;;;;20814564;28;20064;-53
2021/12/12 01:01:03;;;;;;;0.20;0.00;;;-1.00;85.60;;;;;;20813983;28;20409;-58
2021/12/12 01:11:15;;;;;;;0.00;0.00;;;-0.50;84.10;;;;;;20811869;28;20537;-58
2021/12/12 01:21:25;;;;;;;0.00;0.00;;;-0.80;83.00;;;;;;20729299;28;20092;-59
2021/12/12 01:31:32;;;;;;;0.10;0.00;;;-0.20;81.80;;;;;;20729455;28;20491;-57
2021/12/12 01:41:46;;;;;;;0.10;0.00;;;-0.90;86.50;;;;;;20796483;28;20471;-61
2021/12/12 01:51:50;;;;;;;0.00;0.00;;;-1.20;87.10;;;;;;20809957;28;20041;-59
2021/12/12 02:01:58;;;;;;;0.20;0.08;;;-1.20;86.60;;;;;;20771107;28;20545;-59
2021/12/12 02:12:03;;;;;;;0.17;0.00;;;-1.70;88.20;;;;;;20726876;28;20092;-60
2021/12/12 02:22:34;;;;;;;0.20;0.00;;;-1.60;88.60;;;;;;20725813;28;20049;-54
2021/12/12 02:43:03;;;;;;;0.25;0.00;;;-2.00;89.60;;;;;;20805666;28;20111;-58
2021/12/12 02:53:28;;;;;;;0.10;0.00;;;-2.10;90.20;;;;;;20806002;28;20033;-48
2021/12/12 03:03:36;;;;;;;0.10;0.00;;;-2.10;90.10;;;;;;20805426;28;20033;-48
2021/12/12 03:13:40;;;;;;;0.00;0.00;;;-1.90;89.40;;;;;;20780678;28;20491;-48
2021/12/12 03:23:48;;;;;;;0.00;0.00;;;-1.80;89.20;;;;;;20722614;28;20108;-49
2021/12/12 03:33:50;;;;;;;0.22;0.00;;;-1.60;87.80;;;;;;20728585;28;20037;-51
2021/12/12 03:43:57;;;;;;;0.00;0.00;;;-1.40;86.20;;;;;;20803060;28;20410;-48
2021/12/12 03:54:00;;;;;;;0.00;0.00;;;-1.00;84.60;;;;;;20800962;28;20037;-50
2021/12/12 04:04:16;;;;;;;0.30;0.00;;;-0.90;83.30;;;;;;20763402;28;20037;-49
2021/12/12 04:14:21;;;;;;;1.42;0.10;;;-0.40;81.70;;;;;;20721381;28;20042;-50
2021/12/12 04:24:30;;;;;;;0.20;0.00;;;-0.40;81.30;;;;;;20720850;28;20030;-49
2021/12/12 04:34:37;;;;;;;0.00;0.00;;;0.00;78.60;;;;;;20745803;28;20054;-49
2021/12/12 04:44:42;;;;;;;0.00;0.00;;;-0.50;80.40;;;;;;20800843;28;20095;-50
2021/12/12 04:54:57;;;;;;;0.20;0.00;;;-0.80;81.60;;;;;;20803891;28;20068;-49
2021/12/12 05:05:09;;;;;;;0.45;0.00;;;-0.80;83.40;;;;;;20814143;28;20030;-48
2021/12/12 05:15:24;;;;;;;0.00;0.00;;;-0.90;84.30;;;;;;20776700;28;20491;-50
2021/12/12 05:25:36;;;;;;;0.00;0.00;;;-0.90;84.00;;;;;;20731802;28;20537;-51
2021/12/12 05:35:40;;;;;;;0.10;0.03;;;-0.90;83.60;;;;;;20748608;28;20449;-49
2021/12/12 05:45:44;;;;;;;0.98;0.00;;;-0.80;83.50;;;;;;20810377;28;20042;-48
2021/12/12 05:55:50;;;;;;;0.00;0.00;;;-0.70;82.60;;;;;;20811559;28;20076;-48
2021/12/12 06:05:55;;;;;;;0.00;0.00;;;-0.40;80.50;;;;;;20809945;28;20088;-50
2021/12/12 06:16:00;;;;;;;0.10;0.00;;;-0.50;80.50;;;;;;20810007;28;20033;-50
2021/12/12 06:26:03;;;;;;;0.28;0.00;;;-0.40;79.50;;;;;;20807979;28;20045;-51
2021/12/12 06:36:09;;;;;;;0.00;0.00;;;-0.40;79.00;;;;;;20806946;28;20108;-49
2021/12/12 06:46:12;;;;;;;0.35;0.00;;;-0.20;79.10;;;;;;20806556;28;20041;-49
2021/12/12 06:56:20;;;;;;;0.00;0.00;;;-0.50;80.60;;;;;;20805887;28;20087;-50
2021/12/12 07:06:25;;;;;;;0.77;0.00;;;-0.60;79.20;;;;;;20823617;28;20036;-49
2021/12/12 07:16:29;;;;;;;0.00;0.00;;;-0.20;76.90;;;;;;20803403;28;20107;-49
2021/12/12 07:26:31;;;;;;;0.00;0.00;;;0.10;75.50;;;;;;20803852;28;20045;-50
2021/12/12 07:36:40;;;;;;;0.15;0.00;;;0.10;75.40;;;;;;20803398;28;20045;-50
2021/12/12 07:46:44;;;;;;;0.00;0.00;;;0.20;76.30;;;;;;20804367;28;20041;-50
2021/12/12 07:56:48;;;;;;;0.00;0.00;;;0.80;75.00;;;;;;20802729;28;20049;-47
2021/12/12 08:06:52;;;;;;;0.30;0.00;;;1.40;74.10;;;;;;20741148;28;20038;-54
2021/12/12 08:16:56;;;;;;;0.00;0.00;;;1.70;72.40;;;;;;20720784;28;20471;-51
2021/12/12 08:26:59;;;;;;;1.52;0.20;;;2.00;69.50;;;;;;20722284;28;20076;-52
2021/12/12 08:37:03;;;;;;;0.00;0.00;;;2.30;71.10;;;;;;20781393;28;20045;-50
2021/12/12 08:47:10;;;;;;;0.00;0.00;;;2.30;72.80;;;;;;20817583;28;20419;-49
2021/12/12 08:57:31;;;;;;;0.17;0.00;;;2.50;69.60;;;;;;20819632;28;20038;-47
2021/12/12 09:07:41;;;;;;;0.45;0.00;;;2.80;70.20;;;;;;20829977;28;20034;-51
2021/12/12 09:17:49;;;;;;;0.05;0.00;;;2.80;68.50;;;;;;20834647;28;20034;-50
2021/12/12 09:27:59;;;;;;;0.00;0.00;;;3.00;68.80;;;;;;20813674;28;20033;-51
2021/12/12 09:38:17;;;;;;;0.00;0.00;;;3.30;67.40;;;;;;20819612;28;20045;-58
2021/12/12 09:59:54;;;;;;;0.28;0.00;;;3.90;66.20;;;;;;20814421;28;20397;-50
2021/12/12 10:09:58;;;;;;;;;;;4.00;65.90;;;;;;20730270;28;20251;-52
2021/12/12 10:20:08;;;;;;;0.57;0.10;;;4.50;65.90;;;;;;20728094;28;19976;-48
2021/12/12 10:30:44;;;;;;;0.00;0.00;;;4.80;62.90;;;;;;20726253;28;20038;-50
2021/12/12 10:41:09;;;;;;;0.00;0.00;;;5.40;61.80;;;;;;20801719;28;20473;-52
2021/12/12 10:51:20;;;;;;;0.00;0.00;;;5.90;61.60;;;;;;20803562;28;20099;-49
2021/12/12 11:01:24;;;;;;;0.00;0.00;;;6.00;60.80;;;;;;20803336;28;20415;-50
2021/12/12 11:11:40;;;;;;;0.20;0.05;;;5.80;60.30;;;;;;20782295;28;20038;-49
2021/12/12 11:22:00;;;;;;;0.00;0.00;;;6.60;59.60;;;;;;20723168;28;20140;-49
2021/12/12 11:32:21;;;;;;;0.00;0.00;;;6.90;58.70;;;;;;20724114;28;20037;-50
2021/12/12 11:42:45;;;;;;;;;;;7.30;64.70;;;;;;20800328;28;20156;-50
2021/12/12 11:53:26;;;;;;;0.00;0.00;;;7.90;64.00;;;;;;20840155;28;19975;-51
2021/12/12 12:03:55;;;;;;;0.10;0.00;;;8.30;62.50;;;;;;20798288;28;20088;-52
2021/12/12 12:14:13;;;;;;;0.30;0.10;;;9.10;60.80;;;;;;20726133;28;20058;-51
2021/12/12 12:24:37;;;;;;;0.47;0.10;;;8.80;59.80;;;;;;20726312;28;20057;-50
2021/12/12 12:35:03;;;;;;;0.35;0.10;;;8.00;66.10;;;;;;20724283;28;20131;-50
2021/12/12 12:45:43;;;;;;;0.10;0.00;;;7.40;61.90;;;;;;20711975;28;20065;-51
2021/12/12 12:56:22;;;;;;;0.43;0.03;;;7.80;56.90;;;;;;20733571;28;20383;-52
2021/12/12 13:07:08;;;;;;;0.30;0.00;;;7.10;56.80;;;;;;20733324;28;20034;-48
2021/12/12 13:17:25;;;;;;;0.00;0.00;;;6.30;57.00;;;;;;20794640;28;20042;-50
2021/12/12 13:38:07;;;;;;;0.00;0.00;;;5.80;57.50;;;;;;20811810;28;20104;-52
2021/12/12 13:48:32;;;;;;;0.30;0.10;;;5.70;57.60;;;;;;20813495;28;20091;-51
2021/12/12 13:59:05;;;;;;;0.10;0.00;;;5.60;57.70;;;;;;20812353;28;20056;-52
2021/12/12 14:09:22;;;;;;;0.00;0.00;;;5.40;58.90;;;;;;20642451;28;20077;-50
2021/12/12 14:19:33;;;;;;;0.10;0.00;;;5.30;57.60;;;;;;20659607;28;20042;-51
2021/12/12 14:29:46;;;;;;;0.10;0.03;;;5.30;57.00;;;;;;20653440;28;20471;-52
2021/12/12 14:39:49;;;;;;;0.00;0.00;;;5.10;57.30;;;;;;20691571;28;20045;-52
2021/12/12 14:50:00;;;;;;;0.80;0.22;;;4.90;58.20;;;;;;20804876;28;20103;-52
2021/12/12 15:00:27;;;;;;;0.00;0.00;;;4.80;59.90;;;;;;20804226;28;20025;-51
2021/12/12 15:10:54;;;;;;;0.30;0.00;;;4.30;60.20;;;;;;20803391;28;20099;-51
2021/12/12 15:21:05;;;;;;;0.15;0.00;;;3.80;61.20;;;;;;20722250;28;20045;-53
2021/12/12 15:31:13;;;;;;;0.15;0.00;;;3.70;62.80;;;;;;20721892;28;20454;-52
2021/12/12 15:41:24;;;;;;;0.52;0.00;;;3.50;62.30;;;;;;20721394;28;20556;-53
2021/12/12 15:51:29;;;;;;;0.00;0.00;;;3.30;62.90;;;;;;20720890;28;20093;-50
2021/12/12 16:01:37;;;;;;;0.10;0.00;;;3.10;64.90;;;;;;20719441;28;20034;-50
2021/12/12 16:11:41;;;;;;;0.65;0.03;;;3.00;63.50;;;;;;20735351;28;20033;-50
2021/12/12 16:21:49;;;;;;;0.17;0.00;;;2.90;63.00;;;;;;20735121;28;20109;-52
2021/12/12 16:31:59;;;;;;;1.20;0.00;;;2.70;67.70;;;;;;20799859;28;20087;-50
2021/12/12 16:42:06;;;;;;;0.20;0.00;;;2.60;63.00;;;;;;20799905;28;20042;-51
2021/12/12 16:52:14;;;;;;;0.00;0.00;;;2.70;65.20;;;;;;20792382;28;20375;-50
2021/12/12 17:02:22;;;;;;;0.00;0.00;;;2.80;64.00;;;;;;20816478;28;20095;-50
2021/12/12 17:12:34;;;;;;;0.00;0.00;;;2.70;64.50;;;;;;20816528;28;20037;-49
2021/12/12 17:22:37;;;;;;;0.00;0.00;;;2.50;64.60;;;;;;20798853;28;20045;-50
2021/12/12 17:33:16;;;;;;;0.00;0.00;;;2.70;63.50;;;;;;20814309;28;20552;-53
2021/12/12 17:43:41;;;;;;;0.05;0.00;;;3.10;65.30;;;;;;20812227;28;20068;-51
2021/12/12 17:53:52;;;;;;;0.28;0.00;;;3.40;62.60;;;;;;20795664;28;20038;-50
2021/12/12 18:04:03;;;;;;;0.25;0.00;;;3.70;64.10;;;;;;20811141;28;20038;-51
2021/12/12 18:14:14;;;;;;;0.03;0.00;;;3.90;64.70;;;;;;20810109;28;20037;-49
2021/12/12 18:24:33;;;;;;;0.00;0.00;;;3.80;68.00;;;;;;20809862;28;20037;-51
2021/12/12 18:34:46;;;;;;;0.28;0.00;;;3.10;72.20;;;;;;20809568;28;20095;-49
2021/12/12 18:44:57;;;;;;;0.50;0.10;;;2.90;71.20;;;;;;20807655;28;20099;-51
2021/12/12 18:55:08;;;;;;;0.00;0.00;;;3.20;72.90;;;;;;20805949;28;20067;-53
2021/12/12 19:05:22;;;;;;;0.00;0.00;;;3.50;72.90;;;;;;20805450;28;20034;-51
2021/12/12 19:15:33;;;;;;;0.00;0.00;;;4.10;74.90;;;;;;20804332;28;20033;-49
2021/12/12 19:25:38;;;;;;;0.00;0.00;;;4.20;77.00;;;;;;20803980;28;20087;-50
2021/12/12 19:35:43;;;;;;;0.08;0.00;;;4.70;79.40;;;;;;20802774;28;20190;-50
2021/12/12 19:45:54;;;;;;;0.00;0.00;;;4.70;79.80;;;;;;20818767;28;20099;-50
2021/12/12 19:55:58;;;;;;;0.00;0.00;;;4.80;80.00;;;;;;20801722;28;20095;-50
2021/12/12 20:06:10;;;;;;;0.00;0.00;;;4.70;83.30;;;;;;20801330;28;20041;-50
2021/12/12 20:16:26;;;;;;;0.00;0.00;;;4.50;83.50;;;;;;20801074;28;20037;-49
2021/12/12 20:26:29;;;;;;;0.00;0.00;;;4.80;84.40;;;;;;20808327;28;20095;-49
2021/12/12 20:36:39;;;;;;;0.00;0.00;;;4.90;85.90;;;;;;20816295;28;20095;-52
2021/12/12 20:47:03;;;;;;;0.00;0.00;;;5.00;84.90;;;;;;20815418;28;20115;-50
2021/12/12 20:57:09;;;;;;;;;;;5.10;85.80;;;;;;20815210;28;20038;-50
2021/12/12 21:07:17;;;;;;;0.00;0.00;;;4.70;89.40;;;;;;20814593;28;19947;-50
2021/12/12 21:17:24;;;;;;;0.00;0.00;;;4.70;88.90;;;;;;20813545;28;20045;-50
2021/12/12 21:27:31;;;;;;;0.10;0.00;;;4.40;89.30;;;;;;20814166;28;20087;-51
2021/12/12 21:37:34;;;;;;;0.00;0.00;;;4.50;90.10;;;;;;20810275;28;20049;-50
2021/12/12 21:47:42;;;;;;;0.00;0.00;;;4.40;90.50;;;;;;20811266;28;20076;-49
2021/12/12 21:57:45;;;;;;;0.00;0.00;;;4.20;90.90;;;;;;20795286;28;20060;-50
2021/12/12 22:07:57;;;;;;;0.00;0.00;;;4.00;91.30;;;;;;20674724;28;20346;-49
2021/12/12 22:18:01;;;;;;;0.00;0.00;;;3.80;91.90;;;;;;20662436;28;20092;-49
2021/12/12 22:28:08;;;;;;;0.00;0.00;;;4.00;91.80;;;;;;20661643;28;20387;-51
2021/12/12 22:38:27;;;;;;;0.05;0.00;;;4.30;91.20;;;;;;20773751;28;20099;-49
2021/12/12 22:48:35;;;;;;;0.00;0.00;;;4.20;91.30;;;;;;20806392;28;20083;-51
2021/12/12 22:58:54;;;;;;;0.00;0.00;;;4.30;90.80;;;;;;20805439;28;20533;-49
2021/12/12 23:09:02;;;;;;;0.10;0.00;;;4.30;92.20;;;;;;20804682;28;20332;-51
2021/12/12 23:19:16;;;;;;;0.00;0.00;;;3.80;92.40;;;;;;20671389;28;20061;-49
2021/12/12 23:29:22;;;;;;;0.47;0.00;;;3.80;93.60;;;;;;20657288;28;20034;-50
2021/12/12 23:39:25;;;;;;;0.00;0.00;;;3.80;95.20;;;;;;20751472;28;20095;-49
2021/12/12 23:49:36;;;;;;;0.00;0.00;;;3.30;96.10;;;;;;20803677;28;20049;-53
2021/12/12 23:59:55;;;;;;;0.00;0.00;;;3.10;96.80;;;;;;20800980;28;20556;-50
